createdAt,value
2022-08-10T00:04:50.472Z,53.66
2022-08-10T00:09:54.571Z,53.88
2022-08-10T00:14:57.610Z,54.30
2022-08-10T00:20:04.129Z,54.17
2022-08-10T00:25:12.864Z,54.31
2022-08-10T00:30:15.633Z,54.69
2022-08-10T00:35:18.394Z,54.65
2022-08-10T00:40:36.964Z,54.96
2022-08-10T00:45:40.812Z,54.87
2022-08-10T00:50:43.616Z,54.97
2022-08-10T00:57:10.048Z,55.18
2022-08-10T01:01:23.505Z,55.35
2022-08-10T01:06:42.489Z,55.33
2022-08-10T01:12:47.588Z,55.69
2022-08-10T01:17:21.872Z,55.97
2022-08-10T01:22:38.904Z,56.00
2022-08-10T01:27:55.808Z,56.40
2022-08-10T01:33:06.416Z,56.26
2022-08-10T01:38:14.243Z,56.64
2022-08-10T01:43:20.547Z,56.81
2022-08-10T01:48:32.137Z,57.37
2022-08-10T01:53:41.593Z,57.25
2022-08-10T01:58:47.301Z,57.27
2022-08-10T02:04:03.702Z,57.34
2022-08-10T02:09:10.206Z,57.40
2022-08-10T02:14:15.880Z,57.45
2022-08-10T02:19:24.361Z,57.45
2022-08-10T02:24:29.440Z,57.44
2022-08-10T02:29:33.585Z,57.84
2022-08-10T02:34:40.258Z,57.72
2022-08-10T02:39:43.479Z,57.74
2022-08-10T02:45:24.706Z,58.01
2022-08-10T02:50:25.276Z,58.01
2022-08-10T02:55:35.644Z,58.02
2022-08-10T03:00:43.729Z,58.31
2022-08-10T03:05:50.246Z,58.14
2022-08-10T03:10:55.788Z,58.20
2022-08-10T03:16:01.759Z,58.48
2022-08-10T03:21:11.428Z,58.56
2022-08-10T03:26:20.301Z,56.34
2022-08-10T03:31:23.755Z,56.00
2022-08-10T03:36:42.599Z,56.68
2022-08-10T03:41:53.615Z,56.31
2022-08-10T03:47:01.111Z,51.71
2022-08-10T03:52:06.750Z,52.77
2022-08-10T03:57:09.884Z,53.89
2022-08-10T04:02:46.987Z,54.19
2022-08-10T04:07:37.392Z,54.35
2022-08-10T04:12:40.112Z,54.52
2022-08-10T04:17:59.507Z,54.95
2022-08-10T04:23:10.046Z,55.75
2022-08-10T04:28:13.076Z,55.95
2022-08-10T04:33:21.292Z,56.20
2022-08-10T04:38:26.682Z,56.42
2022-08-10T04:43:29.491Z,56.82
2022-08-10T04:48:42.019Z,57.20
2022-08-10T04:54:04.864Z,57.75
2022-08-10T04:59:10.630Z,58.17
2022-08-10T05:04:36.308Z,58.97
2022-08-10T05:10:02.067Z,59.29
2022-08-10T05:15:00.395Z,59.60
2022-08-10T05:20:06.801Z,59.68
2022-08-10T05:25:13.611Z,59.75
2022-08-10T05:30:19.239Z,59.87
2022-08-10T05:35:22.005Z,60.20
2022-08-10T05:40:26.937Z,60.13
2022-08-10T05:45:29.847Z,60.19
2022-08-10T05:50:34.623Z,60.04
2022-08-10T05:55:38.790Z,59.79
2022-08-10T06:00:50.281Z,59.75
2022-08-10T06:05:55.424Z,59.87
2022-08-10T06:12:25.526Z,60.12
2022-08-10T06:16:26.542Z,60.09
2022-08-10T06:21:29.631Z,59.59
2022-08-10T06:26:33.782Z,58.81
2022-08-10T06:31:48.984Z,59.27
2022-08-10T06:36:54.266Z,59.49
2022-08-10T06:42:15.995Z,59.57
2022-08-10T06:47:23.588Z,59.35
2022-08-10T06:52:27.282Z,59.24
2022-08-10T06:57:35.189Z,59.17
2022-08-10T07:02:45.052Z,59.12
2022-08-10T07:07:49.509Z,58.93
2022-08-10T07:12:58.774Z,58.90
2022-08-10T07:18:03.069Z,58.78
2022-08-10T07:23:58.394Z,58.48
2022-08-10T07:28:34.550Z,58.41
2022-08-10T07:33:39.720Z,58.06
2022-08-10T07:38:44.928Z,57.82
2022-08-10T07:43:51.891Z,57.61
2022-08-10T07:49:00.601Z,57.32
2022-08-10T07:54:06.099Z,57.16
2022-08-10T07:59:12.937Z,57.03
2022-08-10T08:04:17.591Z,56.84
2022-08-10T08:09:22.087Z,56.45
2022-08-10T08:14:28.267Z,56.06
2022-08-10T08:19:38.018Z,56.13
2022-08-10T08:24:52.474Z,55.99
2022-08-10T08:29:57.280Z,55.75
2022-08-10T08:35:03.408Z,55.40
2022-08-10T08:40:10.241Z,54.80
2022-08-10T08:45:25.212Z,54.43
2022-08-10T08:50:37.896Z,54.01
2022-08-10T08:56:01.421Z,53.31
2022-08-10T09:01:24.497Z,52.74
2022-08-10T09:08:01.079Z,51.57
2022-08-10T09:12:48.749Z,51.39
2022-08-10T09:18:04.080Z,51.08
2022-08-10T09:23:15.185Z,51.34
2022-08-10T09:28:26.565Z,51.37
2022-08-10T09:36:28.903Z,51.57
2022-08-10T09:40:56.505Z,51.74
2022-08-10T09:44:58.176Z,52.03
2022-08-10T09:50:13.508Z,51.99
2022-08-10T09:56:17.952Z,52.13
2022-08-10T10:00:56.569Z,51.98
2022-08-10T10:06:09.942Z,52.47
2022-08-10T10:11:18.986Z,52.22
2022-08-10T10:16:43.040Z,52.47
2022-08-10T10:21:56.805Z,52.67
2022-08-10T10:27:04.424Z,52.50
2022-08-10T10:32:26.966Z,52.55
2022-08-10T10:38:01.151Z,52.80
2022-08-10T10:43:16.833Z,53.01
2022-08-10T10:48:28.873Z,53.27
2022-08-10T10:53:41.189Z,53.06
2022-08-10T10:58:54.886Z,53.19
2022-08-10T11:04:19.389Z,53.10
2022-08-10T11:10:05.077Z,52.92
2022-08-10T11:14:59.595Z,53.00
2022-08-10T11:20:12.808Z,53.48
2022-08-10T11:25:27.356Z,53.23
2022-08-10T11:30:37.953Z,53.41
2022-08-10T11:35:48.172Z,53.19
2022-08-10T11:41:14.549Z,53.44
2022-08-10T11:46:33.078Z,54.34
2022-08-10T11:51:44.328Z,54.13
2022-08-10T11:56:57.277Z,54.08
2022-08-10T12:02:07.517Z,53.87
2022-08-10T12:10:02.210Z,53.91
2022-08-10T12:12:42.794Z,53.71
2022-08-10T12:17:50.874Z,53.90
2022-08-10T12:22:58.270Z,53.80
2022-08-10T12:28:10.183Z,53.95
2022-08-10T12:33:22.082Z,54.19
2022-08-10T12:38:32.248Z,54.49
2022-08-10T12:44:05.021Z,54.29
2022-08-10T12:49:12.708Z,54.64
2022-08-10T12:54:32.402Z,54.68
2022-08-10T12:59:43.455Z,54.74
2022-08-10T13:04:50.879Z,54.85
2022-08-10T13:09:56.244Z,55.10
2022-08-10T13:15:45.002Z,55.03
2022-08-10T13:20:35.272Z,55.28
2022-08-10T13:25:43.092Z,55.13
2022-08-10T13:30:50.666Z,55.53
2022-08-10T13:35:58.165Z,55.39
2022-08-10T13:41:06.002Z,55.48
2022-08-10T13:46:22.617Z,55.38
2022-08-10T13:51:56.359Z,55.71
2022-08-10T13:56:53.022Z,55.58
2022-08-10T14:02:01.782Z,55.63
2022-08-10T14:07:05.596Z,55.61
2022-08-10T14:12:11.338Z,55.98
2022-08-10T14:17:19.883Z,55.82
2022-08-10T14:22:34.188Z,55.82
2022-08-10T14:28:01.606Z,56.04
2022-08-10T14:33:05.247Z,55.93
2022-08-10T14:38:13.492Z,55.94
2022-08-10T14:43:28.846Z,56.11
2022-08-10T14:48:39.752Z,55.99
2022-08-10T14:53:44.106Z,56.03
2022-08-10T14:58:58.825Z,55.73
2022-08-10T15:04:14.843Z,55.91
2022-08-10T15:09:20.665Z,56.12
2022-08-10T15:14:41.233Z,56.32
2022-08-10T15:20:02.326Z,56.29
2022-08-10T15:25:17.616Z,56.10
2022-08-10T15:30:29.473Z,56.19
2022-08-10T15:35:54.526Z,56.28
2022-08-10T15:40:59.779Z,56.15
2022-08-10T15:46:14.602Z,56.50
2022-08-10T15:51:28.184Z,55.97
2022-08-10T15:56:37.369Z,55.52
2022-08-10T16:02:14.399Z,55.17
2022-08-10T16:07:13.347Z,55.39
2022-08-10T16:12:29.137Z,54.80
2022-08-10T16:17:54.556Z,55.78
2022-08-10T16:23:03.443Z,56.11
2022-08-10T16:28:08.404Z,55.90
2022-08-10T16:33:15.081Z,55.94
2022-08-10T16:38:22.338Z,56.19
2022-08-10T16:43:25.985Z,55.93
2022-08-10T16:48:49.373Z,56.04
2022-08-10T16:53:56.314Z,55.85
2022-08-10T16:59:00.575Z,55.84
2022-08-10T17:04:10.127Z,55.79
2022-08-10T17:09:19.877Z,55.81
2022-08-10T17:14:25.063Z,55.80
2022-08-10T17:19:31.251Z,55.63
2022-08-10T17:24:41.658Z,55.69
2022-08-10T17:29:58.887Z,55.91
2022-08-10T17:35:10.484Z,55.88
2022-08-10T17:40:19.643Z,55.55
2022-08-10T17:45:46.443Z,55.54
2022-08-10T17:50:51.091Z,55.36
2022-08-10T17:55:58.784Z,55.39
2022-08-10T18:01:38.788Z,55.32
2022-08-10T18:06:28.588Z,55.34
2022-08-10T18:11:35.686Z,55.34
2022-08-10T18:16:43.744Z,55.30
2022-08-10T18:21:48.970Z,55.68
2022-08-10T18:26:55.674Z,56.61
2022-08-10T18:32:00.916Z,56.74
2022-08-10T18:37:08.072Z,56.26
2022-08-10T18:42:15.993Z,56.26
2022-08-10T18:47:26.822Z,56.38
2022-08-10T18:52:33.629Z,56.23
2022-08-10T18:57:51.879Z,56.25
2022-08-10T19:03:11.273Z,56.26
2022-08-10T19:09:47.271Z,56.21
2022-08-10T19:14:41.157Z,56.32
2022-08-10T19:19:52.082Z,55.03
2022-08-10T19:25:05.788Z,54.61
2022-08-10T19:30:14.339Z,54.35
2022-08-10T19:35:28.665Z,54.06
2022-08-10T19:40:44.070Z,54.20
2022-08-10T19:46:02.614Z,54.04
2022-08-10T19:51:14.651Z,54.05
2022-08-10T19:56:34.002Z,53.85
2022-08-10T20:01:56.055Z,53.08
2022-08-10T20:07:11.081Z,53.05
2022-08-10T20:12:20.116Z,52.81
2022-08-10T20:17:52.332Z,52.37
2022-08-10T20:23:05.830Z,51.45
2022-08-10T20:28:19.444Z,51.05
2022-08-10T20:33:32.834Z,51.03
2022-08-10T20:38:42.582Z,50.88
2022-08-10T20:43:59.161Z,50.19
2022-08-10T20:49:19.050Z,50.68
2022-08-10T20:54:23.740Z,50.19
2022-08-10T21:00:03.777Z,50.30
2022-08-10T21:05:17.681Z,50.29
2022-08-10T21:10:34.501Z,50.37
2022-08-10T21:15:55.439Z,50.76
2022-08-10T21:21:16.653Z,50.40
2022-08-10T21:26:29.680Z,50.67
2022-08-10T21:31:45.863Z,50.23
2022-08-10T21:36:56.696Z,49.76
2022-08-10T21:42:32.393Z,49.89
2022-08-10T21:48:17.364Z,49.76
2022-08-10T21:53:46.760Z,49.96
2022-08-10T21:59:12.678Z,50.25
2022-08-10T22:04:34.832Z,50.63
2022-08-10T22:10:04.057Z,51.02
2022-08-10T22:16:03.868Z,50.98
2022-08-10T22:21:26.969Z,50.75
2022-08-10T22:27:47.069Z,50.83
2022-08-10T22:33:06.435Z,50.79
2022-08-10T22:38:42.002Z,51.40
2022-08-10T22:44:03.766Z,50.97
2022-08-10T22:49:05.982Z,51.25
2022-08-10T22:54:33.785Z,51.21
2022-08-10T22:59:38.059Z,51.03
2022-08-10T23:04:48.137Z,51.63
2022-08-10T23:10:00.773Z,51.53
2022-08-10T23:15:26.316Z,51.60
2022-08-10T23:20:30.994Z,51.61
2022-08-10T23:25:43.754Z,51.52
2022-08-10T23:31:02.646Z,51.60
2022-08-10T23:36:32.234Z,51.63
2022-08-10T23:41:34.358Z,51.80
2022-08-10T23:46:40.843Z,52.29
2022-08-10T23:51:56.421Z,51.79
2022-08-10T23:57:02.182Z,51.67
